createdAt,value
2019-02-26T00:00:00.894Z,5.61
2019-02-26T00:01:00.950Z,5.51
2019-02-26T00:02:56.324Z,5.57
2019-02-26T00:03:53.980Z,5.50
2019-02-26T00:05:49.857Z,5.48
2019-02-26T00:06:49.022Z,5.47
2019-02-26T00:08:40.025Z,5.46
2019-02-26T00:09:40.072Z,5.50
2019-02-26T00:11:34.068Z,5.53
2019-02-26T00:12:33.797Z,5.44
2019-02-26T00:14:27.534Z,5.44
2019-02-26T00:15:26.134Z,5.43
2019-02-26T00:17:19.582Z,5.53
2019-02-26T00:18:21.327Z,5.54
2019-02-26T00:20:12.771Z,5.57
2019-02-26T00:21:12.212Z,5.57
2019-02-26T00:23:05.189Z,5.62
2019-02-26T00:24:07.146Z,5.61
2019-02-26T00:25:58.214Z,5.64
2019-02-26T00:26:59.314Z,5.59
2019-02-26T00:28:51.251Z,5.54
2019-02-26T00:29:53.009Z,5.50
2019-02-26T00:31:46.144Z,5.48
2019-02-26T00:32:44.335Z,5.50
2019-02-26T00:34:39.006Z,5.50
2019-02-26T00:35:39.332Z,5.51
2019-02-26T00:37:30.717Z,5.50
2019-02-26T00:38:30.421Z,5.39
2019-02-26T00:40:23.395Z,5.41
2019-02-26T00:41:24.671Z,5.23
2019-02-26T00:43:20.942Z,5.26
2019-02-26T00:44:18.645Z,5.29
2019-02-26T00:46:10.342Z,5.44
2019-02-26T00:47:09.548Z,5.39
2019-02-26T00:49:03.122Z,5.38
2019-02-26T00:50:02.548Z,5.26
2019-02-26T00:51:55.532Z,5.44
2019-02-26T00:52:57.038Z,5.44
2019-02-26T00:54:48.562Z,5.48
2019-02-26T00:55:48.612Z,5.28
2019-02-26T00:57:43.092Z,5.20
2019-02-26T00:58:44.016Z,5.08
2019-02-26T01:00:35.480Z,5.14
2019-02-26T01:01:34.678Z,4.99
2019-02-26T01:03:27.665Z,4.96
2019-02-26T01:04:27.712Z,4.97
2019-02-26T01:06:22.098Z,4.96
2019-02-26T01:07:21.366Z,5.00
2019-02-26T01:09:13.735Z,5.07
2019-02-26T01:10:15.728Z,5.02
2019-02-26T01:12:09.031Z,5.02
2019-02-26T01:13:07.256Z,4.94
2019-02-26T01:14:59.799Z,4.84
2019-02-26T01:15:59.849Z,4.92
2019-02-26T01:17:54.931Z,4.89
2019-02-26T01:18:53.237Z,4.87
2019-02-26T01:20:48.347Z,4.80
2019-02-26T01:21:45.915Z,4.93
2019-02-26T01:23:38.896Z,4.89
2019-02-26T01:24:38.945Z,4.92
2019-02-26T01:26:31.924Z,4.90
2019-02-26T01:27:31.984Z,4.84
2019-02-26T01:29:25.869Z,4.74
2019-02-26T01:30:27.012Z,4.90
2019-02-26T01:32:20.435Z,4.92
2019-02-26T01:33:18.043Z,4.96
2019-02-26T01:35:12.827Z,4.86
2019-02-26T01:36:11.082Z,4.90
2019-02-26T01:38:04.070Z,4.82
2019-02-26T01:39:07.320Z,4.70
2019-02-26T01:40:57.098Z,4.63
2019-02-26T01:41:58.813Z,4.62
2019-02-26T01:43:50.139Z,4.63
2019-02-26T01:44:50.182Z,4.58
2019-02-26T01:46:43.187Z,4.62
2019-02-26T01:47:45.564Z,4.66
2019-02-26T01:49:36.225Z,4.62
2019-02-26T01:50:37.951Z,4.55
2019-02-26T01:52:29.248Z,4.44
2019-02-26T01:53:29.303Z,4.44
2019-02-26T01:55:22.962Z,4.55
2019-02-26T01:56:22.335Z,4.50
2019-02-26T01:58:16.545Z,4.48
2019-02-26T01:59:18.327Z,4.49
2019-02-26T02:01:10.013Z,4.56
2019-02-26T02:02:12.176Z,4.59
2019-02-26T02:04:01.377Z,4.60
2019-02-26T02:05:03.198Z,4.62
2019-02-26T02:06:56.615Z,4.55
2019-02-26T02:07:55.997Z,4.48
2019-02-26T02:09:48.990Z,4.53
2019-02-26T02:10:49.649Z,4.50
2019-02-26T02:12:41.499Z,4.50
2019-02-26T02:13:41.363Z,4.50
2019-02-26T02:15:35.554Z,4.41
2019-02-26T02:16:33.634Z,4.40
2019-02-26T02:18:28.123Z,4.49
2019-02-26T02:19:27.598Z,4.37
2019-02-26T02:21:19.565Z,4.45
2019-02-26T02:22:21.300Z,4.38
2019-02-26T02:24:14.712Z,4.44
2019-02-26T02:25:12.649Z,4.31
2019-02-26T02:27:05.628Z,4.45
2019-02-26T02:28:05.691Z,4.50
2019-02-26T02:29:58.667Z,4.53
2019-02-26T02:30:58.721Z,4.59
2019-02-26T02:32:55.075Z,4.42
2019-02-26T02:33:51.749Z,4.37
2019-02-26T02:35:44.730Z,4.28
2019-02-26T02:36:44.779Z,4.30
2019-02-26T02:38:37.783Z,4.26
2019-02-26T02:39:37.831Z,4.32
2019-02-26T02:41:30.791Z,4.19
2019-02-26T02:42:30.838Z,4.14
2019-02-26T02:44:25.596Z,4.16
2019-02-26T02:45:23.905Z,4.22
2019-02-26T02:47:16.852Z,4.23
2019-02-26T02:48:16.903Z,4.17
2019-02-26T02:50:11.839Z,4.22
2019-02-26T02:51:13.153Z,4.22
2019-02-26T02:53:04.056Z,4.23
2019-02-26T02:54:02.969Z,4.13
2019-02-26T02:55:55.945Z,4.19
2019-02-26T02:56:56.782Z,4.06
2019-02-26T02:58:51.605Z,4.14
2019-02-26T02:59:49.037Z,4.16
2019-02-26T03:01:43.085Z,4.13
2019-02-26T03:02:43.363Z,4.14
2019-02-26T03:04:35.071Z,4.19
2019-02-26T03:05:37.457Z,4.16
2019-02-26T03:07:29.434Z,4.17
2019-02-26T03:08:28.148Z,4.13
2019-02-26T03:10:21.130Z,4.12
2019-02-26T03:11:21.176Z,4.16
2019-02-26T03:13:15.006Z,4.19
2019-02-26T03:14:16.529Z,4.17
2019-02-26T03:16:07.193Z,4.06
2019-02-26T03:17:09.215Z,4.10
2019-02-26T03:19:00.222Z,4.12
2019-02-26T03:20:02.744Z,4.20
2019-02-26T03:21:55.031Z,4.12
2019-02-26T03:22:53.293Z,4.17
2019-02-26T03:24:48.248Z,4.10
2019-02-26T03:25:47.448Z,4.04
2019-02-26T03:27:40.589Z,4.06
2019-02-26T03:28:39.968Z,4.05
2019-02-26T03:30:38.158Z,3.99
2019-02-26T03:31:34.810Z,4.01
2019-02-26T03:33:25.513Z,4.04
2019-02-26T03:34:25.889Z,3.91
2019-02-26T03:36:19.275Z,3.91
2019-02-26T03:37:18.446Z,3.80
2019-02-26T03:39:11.582Z,3.76
2019-02-26T03:40:11.468Z,3.78
2019-02-26T03:42:04.445Z,3.78
2019-02-26T03:43:06.996Z,3.80
2019-02-26T03:44:59.656Z,3.78
2019-02-26T03:45:57.536Z,3.74
2019-02-26T03:47:50.515Z,3.68
2019-02-26T03:48:50.569Z,3.78
2019-02-26T03:50:44.592Z,3.81
2019-02-26T03:51:43.616Z,3.77
2019-02-26T03:53:38.517Z,3.68
2019-02-26T03:54:39.826Z,3.59
2019-02-26T03:56:30.130Z,3.69
2019-02-26T03:57:30.180Z,3.65
2019-02-26T03:59:23.175Z,3.65
2019-02-26T04:00:23.208Z,3.65
2019-02-26T04:02:18.152Z,3.60
2019-02-26T04:03:17.391Z,3.55
2019-02-26T04:05:09.230Z,3.60
2019-02-26T04:06:10.069Z,3.48
2019-02-26T04:08:04.442Z,3.58
2019-02-26T04:09:02.321Z,3.45
2019-02-26T04:10:55.994Z,3.50
2019-02-26T04:11:55.454Z,3.45
2019-02-26T04:13:49.352Z,3.42
2019-02-26T04:14:48.363Z,3.36
2019-02-26T04:16:43.628Z,3.32
2019-02-26T04:17:42.250Z,3.28
2019-02-26T04:19:34.386Z,3.37
2019-02-26T04:20:34.423Z,3.31
2019-02-26T04:22:27.399Z,3.26
2019-02-26T04:23:27.450Z,3.42
2019-02-26T04:25:22.148Z,3.37
2019-02-26T04:26:21.065Z,3.37
2019-02-26T04:28:13.457Z,3.32
2019-02-26T04:29:13.515Z,3.41
2019-02-26T04:31:06.502Z,3.31
2019-02-26T04:32:06.551Z,3.31
2019-02-26T04:34:01.826Z,3.41
2019-02-26T04:35:00.502Z,3.37
2019-02-26T04:36:52.550Z,3.31
2019-02-26T04:37:53.264Z,3.34
2019-02-26T04:39:47.625Z,3.23
2019-02-26T04:40:45.629Z,3.29
2019-02-26T04:42:40.977Z,3.28
2019-02-26T04:43:38.828Z,3.29
2019-02-26T04:45:31.639Z,3.29
2019-02-26T04:46:34.333Z,3.18
2019-02-26T04:48:26.936Z,3.34
2019-02-26T04:49:27.118Z,3.41
2019-02-26T04:51:17.696Z,3.44
2019-02-26T04:52:17.760Z,3.37
2019-02-26T04:54:10.739Z,3.34
2019-02-26T04:55:10.778Z,3.40
2019-02-26T04:57:04.256Z,3.36
2019-02-26T04:58:04.306Z,3.36
2019-02-26T04:59:59.135Z,3.32
2019-02-26T05:00:57.330Z,3.36
2019-02-26T05:02:50.308Z,3.32
2019-02-26T05:03:50.358Z,3.42
2019-02-26T05:05:43.342Z,3.26
2019-02-26T05:06:43.391Z,3.32
2019-02-26T05:08:37.595Z,3.32
2019-02-26T05:09:36.418Z,3.21
2019-02-26T05:11:32.587Z,3.19
2019-02-26T05:12:31.660Z,3.32
2019-02-26T05:14:23.629Z,3.11
2019-02-26T05:15:23.354Z,3.22
2019-02-26T05:17:15.465Z,3.21
2019-02-26T05:18:17.638Z,3.21
2019-02-26T05:20:10.469Z,3.16
2019-02-26T05:21:10.864Z,3.13
2019-02-26T05:23:03.087Z,3.13
2019-02-26T05:24:03.049Z,3.18
2019-02-26T05:25:59.698Z,3.26
2019-02-26T05:26:54.599Z,3.18
2019-02-26T05:28:49.709Z,3.13
2019-02-26T05:29:49.169Z,3.22
2019-02-26T05:31:43.046Z,3.18
2019-02-26T05:32:40.659Z,3.23
2019-02-26T05:34:33.635Z,3.19
2019-02-26T05:35:33.680Z,3.16
2019-02-26T05:37:29.241Z,3.21
2019-02-26T05:38:29.639Z,3.16
2019-02-26T05:40:22.163Z,3.10
2019-02-26T05:41:19.740Z,3.14
2019-02-26T05:43:12.731Z,3.13
2019-02-26T05:44:12.778Z,3.07
2019-02-26T05:46:05.778Z,3.13
2019-02-26T05:47:05.835Z,3.16
2019-02-26T05:48:58.820Z,3.07
2019-02-26T05:49:59.532Z,2.92
2019-02-26T05:51:53.540Z,2.90
2019-02-26T05:52:57.599Z,2.90
2019-02-26T05:54:44.879Z,2.89
2019-02-26T05:55:47.673Z,2.89
2019-02-26T05:57:37.910Z,2.86
2019-02-26T05:58:39.427Z,2.86
2019-02-26T06:00:33.337Z,2.93
2019-02-26T06:01:30.991Z,3.04
2019-02-26T06:03:23.964Z,3.03
2019-02-26T06:04:24.022Z,3.03
2019-02-26T06:06:16.991Z,2.98
2019-02-26T06:07:21.730Z,2.92
2019-02-26T06:09:10.028Z,3.04
2019-02-26T06:10:10.075Z,3.10
2019-02-26T06:12:03.053Z,2.97
2019-02-26T06:13:05.018Z,3.01
2019-02-26T06:14:58.448Z,2.95
2019-02-26T06:15:58.544Z,2.87
2019-02-26T06:17:50.809Z,2.92
2019-02-26T06:18:51.703Z,3.00
2019-02-26T06:20:42.139Z,2.90
2019-02-26T06:21:44.304Z,2.95
2019-02-26T06:23:36.682Z,2.92
2019-02-26T06:24:36.157Z,2.89
2019-02-26T06:26:32.416Z,2.95
2019-02-26T06:27:28.240Z,2.93
2019-02-26T06:29:24.445Z,2.89
2019-02-26T06:30:21.266Z,2.95
2019-02-26T06:32:14.252Z,2.98
2019-02-26T06:33:16.284Z,2.98
2019-02-26T06:35:08.539Z,3.07
2019-02-26T06:36:07.330Z,3.00
2019-02-26T06:38:02.142Z,3.01
2019-02-26T06:39:01.529Z,3.05
2019-02-26T06:40:53.344Z,3.08
2019-02-26T06:41:53.370Z,3.07
2019-02-26T06:43:48.518Z,3.14
2019-02-26T06:44:48.879Z,3.10
2019-02-26T06:46:39.386Z,3.26
2019-02-26T06:47:39.439Z,3.10
2019-02-26T06:49:32.417Z,3.18
2019-02-26T06:50:34.080Z,3.26
2019-02-26T06:52:25.446Z,3.32
2019-02-26T06:53:25.499Z,3.26
2019-02-26T06:55:18.485Z,3.28
2019-02-26T06:56:18.531Z,3.29
2019-02-26T06:58:11.510Z,3.36
2019-02-26T06:59:12.285Z,3.36
2019-02-26T07:01:04.555Z,3.31
2019-02-26T07:02:04.616Z,3.41
2019-02-26T07:03:57.595Z,3.48
2019-02-26T07:04:57.640Z,3.45
2019-02-26T07:06:50.612Z,3.47
2019-02-26T07:07:54.072Z,3.53
2019-02-26T07:09:44.009Z,3.42
2019-02-26T07:10:43.696Z,3.51
2019-02-26T07:12:38.356Z,3.44
2019-02-26T07:13:38.587Z,3.55
2019-02-26T07:15:29.713Z,3.56
2019-02-26T07:16:29.758Z,3.60
2019-02-26T07:18:22.739Z,3.65
2019-02-26T07:19:22.785Z,3.69
2019-02-26T07:21:15.762Z,3.74
2019-02-26T07:22:16.479Z,3.73
2019-02-26T07:24:08.796Z,3.77
2019-02-26T07:25:10.690Z,3.94
2019-02-26T07:27:03.814Z,3.94
2019-02-26T07:28:02.934Z,3.92
2019-02-26T07:29:54.851Z,3.99
2019-02-26T07:30:54.894Z,3.95
2019-02-26T07:32:48.354Z,4.02
2019-02-26T07:33:47.932Z,4.02
2019-02-26T07:35:40.919Z,4.12
2019-02-26T07:36:41.527Z,4.14
2019-02-26T07:38:40.913Z,4.22
2019-02-26T07:39:34.027Z,4.19
2019-02-26T07:41:28.378Z,4.22
2019-02-26T07:42:27.020Z,4.31
2019-02-26T07:44:21.727Z,4.50
2019-02-26T07:45:22.252Z,4.55
2019-02-26T07:47:13.028Z,4.94
2019-02-26T07:48:16.232Z,5.59
2019-02-26T07:50:06.665Z,8.09
2019-02-26T07:51:06.110Z,9.22
2019-02-26T07:52:59.500Z,10.97
2019-02-26T07:54:00.744Z,11.62
2019-02-26T07:55:52.120Z,12.49
2019-02-26T07:56:54.635Z,12.94
2019-02-26T07:58:45.158Z,13.54
2019-02-26T07:59:47.514Z,13.83
2019-02-26T08:01:39.904Z,14.18
2019-02-26T08:02:38.258Z,14.30
2019-02-26T08:04:32.305Z,14.77
2019-02-26T08:05:31.289Z,14.97
2019-02-26T08:07:26.235Z,15.18
2019-02-26T08:08:24.344Z,15.31
2019-02-26T08:10:19.263Z,15.58
2019-02-26T08:11:17.373Z,15.70
2019-02-26T08:13:10.353Z,16.21
2019-02-26T08:14:10.417Z,16.35
2019-02-26T08:16:05.126Z,16.43
2019-02-26T08:17:04.374Z,16.53
2019-02-26T08:18:57.168Z,16.76
2019-02-26T08:19:56.508Z,16.83
2019-02-26T08:21:50.374Z,17.20
2019-02-26T08:22:51.402Z,17.22
2019-02-26T08:24:42.532Z,17.74
2019-02-26T08:25:42.579Z,17.70
2019-02-26T08:27:37.725Z,18.05
2019-02-26T08:28:38.394Z,18.05
2019-02-26T08:30:28.637Z,18.19
2019-02-26T08:31:28.686Z,18.35
2019-02-26T08:33:21.731Z,18.66
2019-02-26T08:34:21.733Z,18.86
2019-02-26T08:36:14.737Z,19.12
2019-02-26T08:37:14.795Z,18.98
2019-02-26T08:39:07.802Z,18.99
2019-02-26T08:40:09.420Z,18.89
2019-02-26T08:42:00.826Z,18.95
2019-02-26T08:43:00.895Z,18.78
2019-02-26T08:44:55.865Z,18.95
2019-02-26T08:45:53.940Z,19.14
2019-02-26T08:47:46.937Z,19.64
2019-02-26T08:48:48.455Z,19.73
2019-02-26T08:50:42.131Z,20.04
2019-02-26T08:51:40.047Z,20.34
2019-02-26T08:53:33.044Z,20.34
2019-02-26T08:54:34.018Z,20.26
2019-02-26T08:56:30.938Z,20.28
2019-02-26T08:57:28.659Z,20.41
2019-02-26T08:59:21.667Z,20.63
2019-02-26T09:00:21.746Z,20.85
2019-02-26T09:02:14.714Z,20.84
2019-02-26T09:03:15.649Z,20.93
2019-02-26T09:05:09.481Z,21.06
2019-02-26T09:06:12.781Z,21.17
2019-02-26T09:08:00.802Z,20.28
2019-02-26T09:09:02.697Z,20.06
2019-02-26T09:10:53.855Z,20.40
2019-02-26T09:11:55.883Z,20.52
2019-02-26T09:13:46.907Z,20.84
2019-02-26T09:14:48.126Z,20.78
2019-02-26T09:16:39.984Z,19.54
2019-02-26T09:17:42.080Z,19.54
2019-02-26T09:19:35.144Z,19.09
2019-02-26T09:20:33.062Z,18.50
2019-02-26T09:22:26.611Z,18.03
2019-02-26T09:23:28.237Z,17.89
2019-02-26T09:25:21.042Z,17.11
2019-02-26T09:26:19.157Z,17.26
2019-02-26T09:28:12.141Z,16.84
2019-02-26T09:29:12.642Z,16.74
2019-02-26T09:31:06.689Z,16.43
2019-02-26T09:32:07.328Z,15.92
2019-02-26T09:33:58.248Z,14.88
2019-02-26T09:34:59.159Z,14.33
2019-02-26T09:36:53.025Z,14.03
2019-02-26T09:37:53.312Z,13.90
2019-02-26T09:39:44.346Z,13.56
2019-02-26T09:40:45.174Z,13.41
2019-02-26T09:42:37.396Z,13.27
2019-02-26T09:43:38.726Z,13.18
2019-02-26T09:45:30.450Z,13.11
2019-02-26T09:46:31.717Z,13.09
2019-02-26T09:48:23.481Z,12.85
2019-02-26T09:49:24.599Z,12.93
2019-02-26T09:51:16.714Z,12.93
2019-02-26T09:52:18.405Z,12.83
2019-02-26T09:54:10.900Z,12.91
2019-02-26T09:55:10.659Z,12.87
2019-02-26T09:57:03.134Z,12.91
2019-02-26T09:58:03.188Z,12.85
2019-02-26T09:59:58.179Z,12.98
2019-02-26T10:00:56.233Z,13.01
2019-02-26T10:02:49.946Z,12.94
2019-02-26T10:03:49.267Z,13.04
2019-02-26T10:05:42.258Z,13.13
2019-02-26T10:06:43.024Z,13.12
2019-02-26T10:08:35.295Z,13.18
2019-02-26T10:09:37.446Z,13.19
2019-02-26T10:11:28.334Z,13.33
2019-02-26T10:12:29.885Z,13.33
2019-02-26T10:14:21.367Z,13.38
2019-02-26T10:15:21.426Z,13.42
2019-02-26T10:17:16.488Z,13.53
2019-02-26T10:18:14.469Z,13.62
2019-02-26T10:20:09.377Z,13.67
2019-02-26T10:21:09.103Z,13.57
2019-02-26T10:23:02.898Z,13.57
2019-02-26T10:24:02.029Z,13.65
2019-02-26T10:25:57.495Z,13.60
2019-02-26T10:26:53.594Z,13.63
2019-02-26T10:28:51.078Z,13.62
2019-02-26T10:29:47.619Z,13.75
2019-02-26T10:31:41.113Z,13.75
2019-02-26T10:32:39.682Z,13.75
2019-02-26T10:34:32.661Z,13.81
2019-02-26T10:35:33.677Z,13.97
2019-02-26T10:37:25.710Z,14.03
2019-02-26T10:38:29.587Z,14.10
2019-02-26T10:40:19.543Z,14.11
2019-02-26T10:41:18.808Z,14.17
2019-02-26T10:43:11.811Z,14.10
2019-02-26T10:44:11.864Z,14.14
2019-02-26T10:46:04.852Z,14.11
2019-02-26T10:47:06.407Z,14.18
2019-02-26T10:48:57.888Z,14.30
2019-02-26T10:49:57.954Z,14.43
2019-02-26T10:51:50.939Z,14.41
2019-02-26T10:52:52.641Z,14.45
2019-02-26T10:54:46.473Z,14.44
2019-02-26T10:55:44.027Z,14.47
2019-02-26T10:57:38.490Z,14.53
2019-02-26T10:58:37.079Z,14.65
2019-02-26T11:00:32.227Z,14.59
2019-02-26T11:01:30.904Z,14.77
2019-02-26T11:03:23.117Z,14.81
2019-02-26T11:04:23.170Z,14.97
2019-02-26T11:06:18.773Z,15.00
2019-02-26T11:07:16.208Z,15.07
2019-02-26T11:09:09.200Z,15.07
2019-02-26T11:10:11.697Z,15.28
2019-02-26T11:12:05.199Z,15.29
2019-02-26T11:13:02.297Z,15.43
2019-02-26T11:14:56.353Z,15.43
2019-02-26T11:15:57.559Z,15.49
2019-02-26T11:17:50.482Z,15.36
2019-02-26T11:18:48.382Z,15.37
2019-02-26T11:20:41.371Z,15.39
2019-02-26T11:21:41.428Z,15.37
2019-02-26T11:23:36.241Z,15.29
2019-02-26T11:24:36.171Z,15.44
2019-02-26T11:26:27.451Z,15.54
2019-02-26T11:27:27.509Z,15.65
2019-02-26T11:29:20.499Z,15.70
2019-02-26T11:30:23.107Z,15.67
2019-02-26T11:32:15.601Z,15.65
2019-02-26T11:33:15.455Z,15.68
2019-02-26T11:35:06.578Z,15.77
2019-02-26T11:36:08.211Z,15.76
2019-02-26T11:37:59.631Z,15.86
2019-02-26T11:39:01.835Z,15.70
2019-02-26T11:40:52.660Z,15.98
2019-02-26T11:41:53.760Z,15.92
2019-02-26T11:43:45.707Z,15.90
2019-02-26T11:44:45.766Z,16.05
2019-02-26T11:46:38.753Z,16.02
2019-02-26T11:47:39.529Z,16.05
2019-02-26T11:49:31.819Z,16.13
2019-02-26T11:50:31.853Z,16.16
2019-02-26T11:52:24.843Z,16.12
2019-02-26T11:53:24.904Z,16.12
2019-02-26T11:55:17.889Z,16.01
2019-02-26T11:56:20.741Z,16.10
2019-02-26T11:58:13.073Z,16.29
2019-02-26T11:59:12.599Z,16.35
2019-02-26T12:01:03.974Z,16.35
2019-02-26T12:02:06.267Z,16.39
2019-02-26T12:04:02.533Z,16.43
2019-02-26T12:04:57.564Z,16.54
2019-02-26T12:06:50.073Z,16.50
2019-02-26T12:07:51.424Z,16.51
2019-02-26T12:09:43.327Z,16.65
2019-02-26T12:10:43.164Z,16.60
2019-02-26T12:12:36.849Z,16.61
2019-02-26T12:13:36.217Z,16.76
2019-02-26T12:15:30.231Z,16.75
2019-02-26T12:16:29.257Z,16.76
2019-02-26T12:18:22.531Z,16.76
2019-02-26T12:19:23.104Z,16.84
2019-02-26T12:21:15.311Z,16.96
2019-02-26T12:22:15.355Z,16.90
2019-02-26T12:24:09.225Z,16.81
2019-02-26T12:25:10.952Z,16.86
2019-02-26T12:27:01.391Z,16.86
2019-02-26T12:28:02.868Z,16.81
2019-02-26T12:29:54.664Z,16.90
2019-02-26T12:30:54.493Z,16.94
2019-02-26T12:32:50.023Z,16.97
2019-02-26T12:33:47.538Z,17.06
2019-02-26T12:35:42.948Z,17.08
2019-02-26T12:36:40.631Z,17.09
2019-02-26T12:38:36.578Z,16.99
2019-02-26T12:39:33.636Z,16.94
2019-02-26T12:41:26.634Z,17.02
2019-02-26T12:42:26.697Z,17.08
2019-02-26T12:44:19.689Z,17.22
2019-02-26T12:45:19.752Z,17.09
2019-02-26T12:47:14.694Z,16.97
2019-02-26T12:48:16.044Z,16.91
2019-02-26T12:50:08.644Z,17.12
2019-02-26T12:51:07.675Z,17.08
2019-02-26T12:52:58.816Z,17.16
2019-02-26T12:54:00.537Z,17.26
2019-02-26T12:55:54.022Z,17.27
2019-02-26T12:56:54.753Z,17.31
2019-02-26T12:58:47.968Z,17.34
2019-02-26T12:59:44.973Z,17.29
2019-02-26T13:01:39.773Z,17.05
2019-02-26T13:02:39.866Z,17.09
2019-02-26T13:04:31.021Z,16.91
2019-02-26T13:05:31.065Z,16.96
2019-02-26T13:07:24.053Z,16.91
2019-02-26T13:08:24.354Z,16.90
2019-02-26T13:10:17.105Z,17.15
2019-02-26T13:11:18.281Z,17.08
2019-02-26T13:13:10.141Z,17.19
2019-02-26T13:14:10.200Z,17.14
2019-02-26T13:16:03.198Z,16.97
2019-02-26T13:17:03.293Z,17.08
2019-02-26T13:19:00.638Z,16.90
2019-02-26T13:19:58.867Z,16.87
2019-02-26T13:21:51.851Z,16.78
2019-02-26T13:22:49.355Z,16.74
2019-02-26T13:24:42.331Z,16.81
2019-02-26T13:25:42.383Z,16.76
2019-02-26T13:27:38.504Z,16.76
2019-02-26T13:28:37.906Z,16.75
2019-02-26T13:30:28.421Z,16.87
2019-02-26T13:31:28.472Z,16.87
2019-02-26T13:33:27.131Z,16.78
2019-02-26T13:34:21.519Z,16.74
2019-02-26T13:36:14.513Z,16.79
2019-02-26T13:37:14.566Z,16.74
2019-02-26T13:39:07.576Z,16.83
2019-02-26T13:40:07.628Z,16.81
2019-02-26T13:42:05.688Z,16.87
2019-02-26T13:44:53.669Z,17.06
2019-02-26T13:45:53.723Z,17.08
2019-02-26T13:47:46.721Z,17.04
2019-02-26T13:48:46.766Z,16.99
2019-02-26T13:50:39.759Z,16.96
2019-02-26T13:51:39.812Z,17.01
2019-02-26T13:53:32.806Z,17.04
2019-02-26T13:54:32.867Z,16.99
2019-02-26T13:56:26.370Z,16.87
2019-02-26T13:57:26.419Z,16.89
2019-02-26T13:59:19.414Z,16.89
2019-02-26T14:00:26.003Z,16.94
2019-02-26T14:02:12.447Z,16.81
2019-02-26T14:03:12.510Z,16.89
2019-02-26T14:05:05.502Z,16.93
2019-02-26T14:06:05.553Z,16.94
2019-02-26T14:07:58.551Z,17.19
2019-02-26T14:08:58.599Z,17.24
2019-02-26T14:10:51.596Z,17.27
2019-02-26T14:11:51.650Z,17.36
2019-02-26T14:13:44.641Z,17.30
2019-02-26T14:14:44.701Z,17.26
2019-02-26T14:16:37.695Z,17.15
2019-02-26T14:17:37.791Z,17.11
2019-02-26T14:19:30.738Z,17.22
2019-02-26T14:20:30.790Z,17.20
2019-02-26T14:22:23.781Z,17.30
2019-02-26T14:23:23.835Z,17.39
2019-02-26T14:25:16.829Z,17.39
2019-02-26T14:26:17.172Z,17.36
2019-02-26T14:28:09.869Z,17.45
2019-02-26T14:29:09.928Z,17.44
2019-02-26T14:31:02.929Z,17.59
2019-02-26T14:32:02.981Z,17.63
2019-02-26T14:33:55.970Z,17.56
2019-02-26T14:34:56.031Z,17.59
2019-02-26T14:36:49.039Z,17.59
2019-02-26T14:37:49.079Z,17.63
2019-02-26T14:39:42.073Z,17.51
2019-02-26T14:40:42.133Z,17.67
2019-02-26T14:42:35.117Z,17.68
2019-02-26T14:43:35.182Z,17.63
2019-02-26T14:45:28.179Z,17.65
2019-02-26T14:46:28.227Z,17.49
2019-02-26T14:48:21.213Z,17.51
2019-02-26T14:49:21.275Z,17.45
2019-02-26T14:51:14.268Z,17.52
2019-02-26T14:52:14.324Z,17.59
2019-02-26T14:54:07.311Z,17.60
2019-02-26T14:55:07.381Z,17.56
2019-02-26T14:57:00.878Z,17.52
2019-02-26T14:58:00.929Z,17.54
2019-02-26T14:59:53.943Z,17.65
2019-02-26T15:00:57.675Z,17.64
2019-02-26T15:02:46.984Z,17.70
2019-02-26T15:03:47.074Z,17.65
2019-02-26T15:05:40.038Z,17.59
2019-02-26T15:06:40.107Z,17.67
2019-02-26T15:08:33.080Z,17.54
2019-02-26T15:09:33.141Z,17.48
2019-02-26T15:11:26.137Z,17.45
2019-02-26T15:12:26.191Z,17.38
2019-02-26T15:14:19.178Z,17.27
2019-02-26T15:15:19.256Z,17.26
2019-02-26T15:17:12.253Z,17.22
2019-02-26T15:18:12.290Z,17.14
2019-02-26T15:20:05.282Z,17.31
2019-02-26T15:21:05.332Z,17.23
2019-02-26T15:22:58.320Z,17.24
2019-02-26T15:23:58.380Z,17.31
2019-02-26T15:25:51.370Z,17.33
2019-02-26T15:26:51.424Z,17.30
2019-02-26T15:28:44.409Z,17.11
2019-02-26T15:29:44.472Z,17.04
2019-02-26T15:31:37.459Z,17.02
2019-02-26T15:32:37.518Z,17.01
2019-02-26T15:34:30.503Z,16.90
2019-02-26T15:35:30.558Z,16.90
2019-02-26T15:37:23.557Z,16.81
2019-02-26T15:38:23.614Z,16.81
2019-02-26T15:40:16.602Z,16.76
2019-02-26T15:41:16.656Z,16.78
2019-02-26T15:43:09.662Z,16.75
2019-02-26T15:44:09.724Z,16.68
2019-02-26T15:46:02.724Z,16.72
2019-02-26T15:47:03.026Z,16.72
2019-02-26T15:48:55.763Z,16.65
2019-02-26T15:49:55.821Z,16.71
2019-02-26T15:51:51.035Z,16.76
2019-02-26T15:52:52.599Z,16.75
2019-02-26T15:54:41.860Z,16.74
2019-02-26T15:55:41.914Z,16.76
2019-02-26T15:57:34.912Z,16.69
2019-02-26T15:58:34.968Z,16.68
2019-02-26T16:00:27.963Z,16.75
2019-02-26T16:01:28.018Z,16.60
2019-02-26T16:03:20.999Z,16.50
2019-02-26T16:04:21.059Z,16.53
2019-02-26T16:06:14.065Z,16.53
2019-02-26T16:07:14.111Z,16.51
2019-02-26T16:09:07.095Z,16.57
2019-02-26T16:10:07.156Z,16.50
2019-02-26T16:12:00.153Z,16.49
2019-02-26T16:13:00.207Z,16.46
2019-02-26T16:14:53.200Z,16.57
2019-02-26T16:15:53.256Z,16.53
2019-02-26T16:17:46.255Z,16.41
2019-02-26T16:18:46.311Z,16.43
2019-02-26T16:20:39.325Z,16.36
2019-02-26T16:21:39.364Z,16.41
2019-02-26T16:23:32.338Z,16.42
2019-02-26T16:24:32.397Z,16.29
2019-02-26T16:26:25.390Z,16.28
2019-02-26T16:27:25.445Z,16.35
2019-02-26T16:29:18.429Z,16.24
2019-02-26T16:30:18.491Z,16.23
2019-02-26T16:32:11.487Z,16.28
2019-02-26T16:33:13.675Z,16.23
2019-02-26T16:35:04.534Z,16.02
2019-02-26T16:36:04.589Z,15.97
2019-02-26T16:37:57.578Z,15.91
2019-02-26T16:38:57.627Z,15.84
2019-02-26T16:40:50.661Z,15.72
2019-02-26T16:41:50.680Z,15.68
2019-02-26T16:43:43.664Z,15.70
2019-02-26T16:44:43.726Z,15.62
2019-02-26T16:46:36.720Z,15.46
2019-02-26T16:47:36.776Z,15.44
2019-02-26T16:49:29.761Z,15.29
2019-02-26T16:50:29.826Z,15.18
2019-02-26T16:52:22.813Z,15.04
2019-02-26T16:53:22.863Z,14.97
2019-02-26T16:55:17.282Z,14.81
2019-02-26T16:56:15.913Z,14.77
2019-02-26T16:58:08.906Z,14.66
2019-02-26T16:59:08.960Z,14.48
2019-02-26T17:01:01.958Z,14.33
2019-02-26T17:02:02.001Z,14.29
2019-02-26T17:03:54.994Z,14.07
2019-02-26T17:04:55.044Z,14.10
2019-02-26T17:06:48.035Z,13.93
2019-02-26T17:07:48.088Z,13.81
2019-02-26T17:09:41.338Z,13.72
2019-02-26T17:10:41.153Z,13.67
2019-02-26T17:12:34.144Z,13.50
2019-02-26T17:13:34.198Z,13.47
2019-02-26T17:15:27.197Z,13.25
2019-02-26T17:16:31.285Z,13.18
2019-02-26T17:18:20.250Z,12.97
2019-02-26T17:19:20.304Z,13.04
2019-02-26T17:21:13.286Z,12.94
2019-02-26T17:22:13.348Z,12.95
2019-02-26T17:24:06.343Z,12.83
2019-02-26T17:25:06.400Z,12.76
2019-02-26T17:26:59.387Z,12.67
2019-02-26T17:27:59.441Z,12.53
2019-02-26T17:29:52.435Z,12.58
2019-02-26T17:30:52.488Z,12.47
2019-02-26T17:32:45.481Z,12.65
2019-02-26T17:33:46.712Z,12.64
2019-02-26T17:35:38.514Z,12.42
2019-02-26T17:36:38.572Z,12.46
2019-02-26T17:38:31.578Z,12.36
2019-02-26T17:39:31.633Z,12.09
2019-02-26T17:41:24.624Z,12.07
2019-02-26T17:42:24.674Z,12.03
2019-02-26T17:44:17.667Z,11.87
2019-02-26T17:45:17.718Z,11.81
2019-02-26T17:47:10.712Z,11.73
2019-02-26T17:48:10.760Z,11.68
2019-02-26T17:50:03.777Z,11.66
2019-02-26T17:51:03.837Z,11.60
2019-02-26T17:52:56.833Z,11.51
2019-02-26T17:53:56.887Z,11.51
2019-02-26T17:55:49.867Z,11.47
2019-02-26T17:56:49.925Z,11.33
2019-02-26T17:58:43.954Z,11.26
2019-02-26T17:59:42.969Z,11.26
2019-02-26T18:01:35.955Z,11.23
2019-02-26T18:02:36.013Z,11.30
2019-02-26T18:04:29.006Z,11.08
2019-02-26T18:05:29.061Z,11.12
2019-02-26T18:07:22.060Z,11.10
2019-02-26T18:08:22.114Z,10.96
2019-02-26T18:10:15.095Z,10.93
2019-02-26T18:11:15.154Z,10.87
2019-02-26T18:13:08.143Z,10.81
2019-02-26T18:14:08.196Z,10.84
2019-02-26T18:16:08.923Z,10.94
2019-02-26T18:17:01.245Z,10.84
2019-02-26T18:18:54.238Z,10.79
2019-02-26T18:19:54.284Z,10.75
2019-02-26T18:21:47.272Z,10.64
2019-02-26T18:22:47.328Z,10.64
2019-02-26T18:24:40.322Z,10.57
2019-02-26T18:25:40.372Z,10.44
2019-02-26T18:27:33.374Z,10.59
2019-02-26T18:28:33.409Z,10.41
2019-02-26T18:30:26.411Z,10.49
2019-02-26T18:31:26.810Z,10.46
2019-02-26T18:33:19.437Z,10.33
2019-02-26T18:34:20.618Z,10.37
2019-02-26T18:36:12.474Z,10.41
2019-02-26T18:37:12.530Z,10.44
2019-02-26T18:39:05.526Z,10.34
2019-02-26T18:40:07.448Z,10.26
2019-02-26T18:41:59.207Z,10.31
2019-02-26T18:42:58.617Z,10.28
2019-02-26T18:44:51.922Z,10.17
2019-02-26T18:45:51.655Z,10.20
2019-02-26T18:47:44.647Z,10.16
2019-02-26T18:48:48.527Z,10.15
2019-02-26T18:50:39.097Z,10.16